sensor_id;sensor_type;location;lat;lon;timestamp;P1;P2;P0
60245;PMS5003;46107;53.356;-1.524;2024-02-21T00:01:29;16;13;
60245;PMS5003;46107;53.356;-1.524;2024-02-21T00:03:56;14;14;
60245;PMS5003;46107;53.356;-1.524;2024-02-21T00:06:24;13;12;
60245;PMS5003;46107;53.356;-1.524;2024-02-21T00:08:51;16;13;
60245;PMS5003;46107;53.356;-1.524;2024-02-21T00:11:18;14;11;
60245;PMS5003;46107;53.356;-1.524;2024-02-21T00:13:46;11;11;
60245;PMS5003;46107;53.356;-1.524;2024-02-21T00:16:13;13;11;
60245;PMS5003;46107;53.356;-1.524;2024-02-21T00:18:40;13;12;
60245;PMS5003;46107;53.356;-1.524;2024-02-21T00:21:08;11;8;
60245;PMS5003;46107;53.356;-1.524;2024-02-21T00:23:36;15;15;
60245;PMS5003;46107;53.356;-1.524;2024-02-21T00:26:03;14;11;
60245;PMS5003;46107;53.356;-1.524;2024-02-21T00:28:31;13;11;
60245;PMS5003;46107;53.356;-1.524;2024-02-21T00:30:58;17;13;
60245;PMS5003;46107;53.356;-1.524;2024-02-21T00:33:25;18;13;
60245;PMS5003;46107;53.356;-1.524;2024-02-21T00:35:53;11;10;
60245;PMS5003;46107;53.356;-1.524;2024-02-21T00:38:21;16;14;
60245;PMS5003;46107;53.356;-1.524;2024-02-21T00:40:49;12;9;
60245;PMS5003;46107;53.356;-1.524;2024-02-21T00:43:17;14;12;
60245;PMS5003;46107;53.356;-1.524;2024-02-21T00:45:44;13;10;
60245;PMS5003;46107;53.356;-1.524;2024-02-21T00:48:11;13;11;
60245;PMS5003;46107;53.356;-1.524;2024-02-21T00:50:39;17;14;
60245;PMS5003;46107;53.356;-1.524;2024-02-21T00:53:07;17;14;
60245;PMS5003;46107;53.356;-1.524;2024-02-21T00:55:35;12;12;
60245;PMS5003;46107;53.356;-1.524;2024-02-21T00:58:04;17;12;
60245;PMS5003;46107;53.356;-1.524;2024-02-21T01:00:33;21;16;
60245;PMS5003;46107;53.356;-1.524;2024-02-21T01:03:00;15;15;
60245;PMS5003;46107;53.356;-1.524;2024-02-21T01:05:30;15;12;
60245;PMS5003;46107;53.356;-1.524;2024-02-21T01:08:00;13;11;
60245;PMS5003;46107;53.356;-1.524;2024-02-21T01:10:28;16;12;
60245;PMS5003;46107;53.356;-1.524;2024-02-21T01:12:56;11;10;
60245;PMS5003;46107;53.356;-1.524;2024-02-21T01:15:23;12;11;
60245;PMS5003;46107;53.356;-1.524;2024-02-21T01:17:52;12;11;
60245;PMS5003;46107;53.356;-1.524;2024-02-21T01:20:20;15;13;
60245;PMS5003;46107;53.356;-1.524;2024-02-21T01:22:47;10;10;
60245;PMS5003;46107;53.356;-1.524;2024-02-21T01:25:15;8;8;
60245;PMS5003;46107;53.356;-1.524;2024-02-21T01:27:44;12;10;
60245;PMS5003;46107;53.356;-1.524;2024-02-21T01:30:13;7;6;
60245;PMS5003;46107;53.356;-1.524;2024-02-21T01:32:42;9;7;
60245;PMS5003;46107;53.356;-1.524;2024-02-21T01:35:09;9;8;
60245;PMS5003;46107;53.356;-1.524;2024-02-21T01:37:36;11;8;
60245;PMS5003;46107;53.356;-1.524;2024-02-21T01:40:04;10;9;
60245;PMS5003;46107;53.356;-1.524;2024-02-21T01:42:33;9;9;
60245;PMS5003;46107;53.356;-1.524;2024-02-21T01:45:04;9;7;
60245;PMS5003;46107;53.356;-1.524;2024-02-21T01:47:32;8;8;
60245;PMS5003;46107;53.356;-1.524;2024-02-21T01:50:00;12;10;
60245;PMS5003;46107;53.356;-1.524;2024-02-21T01:52:29;9;9;
60245;PMS5003;46107;53.356;-1.524;2024-02-21T01:55:01;9;9;
60245;PMS5003;46107;53.356;-1.524;2024-02-21T01:57:29;10;9;
60245;PMS5003;46107;53.356;-1.524;2024-02-21T01:59:57;14;10;
60245;PMS5003;46107;53.356;-1.524;2024-02-21T02:02:25;14;10;
60245;PMS5003;46107;53.356;-1.524;2024-02-21T02:04:55;14;11;
60245;PMS5003;46107;53.356;-1.524;2024-02-21T02:07:27;13;12;
60245;PMS5003;46107;53.356;-1.524;2024-02-21T02:09:54;15;13;
60245;PMS5003;46107;53.356;-1.524;2024-02-21T02:12:22;14;11;
60245;PMS5003;46107;53.356;-1.524;2024-02-21T02:14:58;14;14;
60245;PMS5003;46107;53.356;-1.524;2024-02-21T02:17:26;16;15;
60245;PMS5003;46107;53.356;-1.524;2024-02-21T02:19:53;22;18;
60245;PMS5003;46107;53.356;-1.524;2024-02-21T02:22:22;19;18;
60245;PMS5003;46107;53.356;-1.524;2024-02-21T02:24:58;20;16;
60245;PMS5003;46107;53.356;-1.524;2024-02-21T02:27:27;16;13;
60245;PMS5003;46107;53.356;-1.524;2024-02-21T02:29:54;17;13;
60245;PMS5003;46107;53.356;-1.524;2024-02-21T02:32:21;13;12;
60245;PMS5003;46107;53.356;-1.524;2024-02-21T02:34:51;25;15;
60245;PMS5003;46107;53.356;-1.524;2024-02-21T02:37:18;17;13;
60245;PMS5003;46107;53.356;-1.524;2024-02-21T02:39:46;20;17;
60245;PMS5003;46107;53.356;-1.524;2024-02-21T02:42:13;20;16;
60245;PMS5003;46107;53.356;-1.524;2024-02-21T02:44:42;28;18;
60245;PMS5003;46107;53.356;-1.524;2024-02-21T02:47:10;18;15;
60245;PMS5003;46107;53.356;-1.524;2024-02-21T02:49:38;12;12;
60245;PMS5003;46107;53.356;-1.524;2024-02-21T02:52:07;18;15;
60245;PMS5003;46107;53.356;-1.524;2024-02-21T02:54:39;15;13;
60245;PMS5003;46107;53.356;-1.524;2024-02-21T02:57:08;20;18;
60245;PMS5003;46107;53.356;-1.524;2024-02-21T02:59:36;18;17;
60245;PMS5003;46107;53.356;-1.524;2024-02-21T03:02:03;20;15;
60245;PMS5003;46107;53.356;-1.524;2024-02-21T03:04:30;16;13;
60245;PMS5003;46107;53.356;-1.524;2024-02-21T03:07:01;19;13;
60245;PMS5003;46107;53.356;-1.524;2024-02-21T03:09:30;15;15;
60245;PMS5003;46107;53.356;-1.524;2024-02-21T03:11:57;19;17;
60245;PMS5003;46107;53.356;-1.524;2024-02-21T03:14:24;21;15;
60245;PMS5003;46107;53.356;-1.524;2024-02-21T03:16:54;17;15;
60245;PMS5003;46107;53.356;-1.524;2024-02-21T03:19:22;21;17;
60245;PMS5003;46107;53.356;-1.524;2024-02-21T03:21:50;25;21;
60245;PMS5003;46107;53.356;-1.524;2024-02-21T03:24:18;18;17;
60245;PMS5003;46107;53.356;-1.524;2024-02-21T03:26:46;16;14;
60245;PMS5003;46107;53.356;-1.524;2024-02-21T03:29:14;18;18;
60245;PMS5003;46107;53.356;-1.524;2024-02-21T03:31:44;17;16;
60245;PMS5003;46107;53.356;-1.524;2024-02-21T03:34:11;17;17;
60245;PMS5003;46107;53.356;-1.524;2024-02-21T03:36:39;15;13;
60245;PMS5003;46107;53.356;-1.524;2024-02-21T03:39:09;13;8;
60245;PMS5003;46107;53.356;-1.524;2024-02-21T03:41:36;14;13;
60245;PMS5003;46107;53.356;-1.524;2024-02-21T03:44:04;17;17;
60245;PMS5003;46107;53.356;-1.524;2024-02-21T03:46:32;13;13;
60245;PMS5003;46107;53.356;-1.524;2024-02-21T03:49:00;22;17;
60245;PMS5003;46107;53.356;-1.524;2024-02-21T03:51:29;15;13;
60245;PMS5003;46107;53.356;-1.524;2024-02-21T03:53:58;14;13;
60245;PMS5003;46107;53.356;-1.524;2024-02-21T03:56:25;13;12;
60245;PMS5003;46107;53.356;-1.524;2024-02-21T03:58:52;12;11;
60245;PMS5003;46107;53.356;-1.524;2024-02-21T04:01:20;12;12;
60245;PMS5003;46107;53.356;-1.524;2024-02-21T04:03:49;11;11;
60245;PMS5003;46107;53.356;-1.524;2024-02-21T04:06:19;13;13;
60245;PMS5003;46107;53.356;-1.524;2024-02-21T04:08:47;17;12;
60245;PMS5003;46107;53.356;-1.524;2024-02-21T04:11:15;12;11;
60245;PMS5003;46107;53.356;-1.524;2024-02-21T04:13:44;16;12;
60245;PMS5003;46107;53.356;-1.524;2024-02-21T04:16:12;12;10;
60245;PMS5003;46107;53.356;-1.524;2024-02-21T04:18:40;14;14;
60245;PMS5003;46107;53.356;-1.524;2024-02-21T04:21:08;13;12;
60245;PMS5003;46107;53.356;-1.524;2024-02-21T04:23:36;14;10;
60245;PMS5003;46107;53.356;-1.524;2024-02-21T04:26:05;11;11;
60245;PMS5003;46107;53.356;-1.524;2024-02-21T04:28:32;11;11;
60245;PMS5003;46107;53.356;-1.524;2024-02-21T04:31:00;9;8;
60245;PMS5003;46107;53.356;-1.524;2024-02-21T04:33:29;12;11;
60245;PMS5003;46107;53.356;-1.524;2024-02-21T04:36:01;8;7;
60245;PMS5003;46107;53.356;-1.524;2024-02-21T04:38:30;7;6;
60245;PMS5003;46107;53.356;-1.524;2024-02-21T04:40:57;7;7;
60245;PMS5003;46107;53.356;-1.524;2024-02-21T04:43:24;6;6;
60245;PMS5003;46107;53.356;-1.524;2024-02-21T04:45:52;5;5;
60245;PMS5003;46107;53.356;-1.524;2024-02-21T04:48:19;7;6;
60245;PMS5003;46107;53.356;-1.524;2024-02-21T04:50:47;2;2;
60245;PMS5003;46107;53.356;-1.524;2024-02-21T04:53:14;6;5;
60245;PMS5003;46107;53.356;-1.524;2024-02-21T04:55:43;3;3;
60245;PMS5003;46107;53.356;-1.524;2024-02-21T04:58:13;6;4;
60245;PMS5003;46107;53.356;-1.524;2024-02-21T05:00:41;4;4;
60245;PMS5003;46107;53.356;-1.524;2024-02-21T05:03:08;2;2;
60245;PMS5003;46107;53.356;-1.524;2024-02-21T05:05:36;2;2;
60245;PMS5003;46107;53.356;-1.524;2024-02-21T05:08:06;1;1;
60245;PMS5003;46107;53.356;-1.524;2024-02-21T05:10:34;3;2;
60245;PMS5003;46107;53.356;-1.524;2024-02-21T05:13:03;2;2;
60245;PMS5003;46107;53.356;-1.524;2024-02-21T05:15:31;1;1;
60245;PMS5003;46107;53.356;-1.524;2024-02-21T05:18:00;2;2;
60245;PMS5003;46107;53.356;-1.524;2024-02-21T05:20:28;2;2;
60245;PMS5003;46107;53.356;-1.524;2024-02-21T05:22:56;2;2;
60245;PMS5003;46107;53.356;-1.524;2024-02-21T05:25:23;2;2;
60245;PMS5003;46107;53.356;-1.524;2024-02-21T05:27:51;1;1;
60245;PMS5003;46107;53.356;-1.524;2024-02-21T05:30:18;1;1;
60245;PMS5003;46107;53.356;-1.524;2024-02-21T05:32:46;1;1;
60245;PMS5003;46107;53.356;-1.524;2024-02-21T05:35:13;2;2;
60245;PMS5003;46107;53.356;-1.524;2024-02-21T05:37:41;1;1;
60245;PMS5003;46107;53.356;-1.524;2024-02-21T05:40:09;1;1;
60245;PMS5003;46107;53.356;-1.524;2024-02-21T05:42:38;3;1;
60245;PMS5003;46107;53.356;-1.524;2024-02-21T05:45:06;0;0;
60245;PMS5003;46107;53.356;-1.524;2024-02-21T05:47:35;1;1;
60245;PMS5003;46107;53.356;-1.524;2024-02-21T05:50:07;2;0;
60245;PMS5003;46107;53.356;-1.524;2024-02-21T05:52:38;0;0;
60245;PMS5003;46107;53.356;-1.524;2024-02-21T05:55:06;1;1;
60245;PMS5003;46107;53.356;-1.524;2024-02-21T05:57:37;0;0;
60245;PMS5003;46107;53.356;-1.524;2024-02-21T06:00:08;1;1;
60245;PMS5003;46107;53.356;-1.524;2024-02-21T06:02:36;1;1;
60245;PMS5003;46107;53.356;-1.524;2024-02-21T06:05:04;1;1;
60245;PMS5003;46107;53.356;-1.524;2024-02-21T06:07:33;3;1;
60245;PMS5003;46107;53.356;-1.524;2024-02-21T06:10:01;1;1;
60245;PMS5003;46107;53.356;-1.524;2024-02-21T06:12:31;0;0;
60245;PMS5003;46107;53.356;-1.524;2024-02-21T06:14:59;1;1;
60245;PMS5003;46107;53.356;-1.524;2024-02-21T06:17:27;1;0;
60245;PMS5003;46107;53.356;-1.524;2024-02-21T06:19:55;1;1;
60245;PMS5003;46107;53.356;-1.524;2024-02-21T06:22:22;1;1;
60245;PMS5003;46107;53.356;-1.524;2024-02-21T06:24:52;2;2;
60245;PMS5003;46107;53.356;-1.524;2024-02-21T06:27:20;1;1;
60245;PMS5003;46107;53.356;-1.524;2024-02-21T06:29:48;1;1;
60245;PMS5003;46107;53.356;-1.524;2024-02-21T06:32:16;2;2;
60245;PMS5003;46107;53.356;-1.524;2024-02-21T06:34:45;2;1;
60245;PMS5003;46107;53.356;-1.524;2024-02-21T06:37:13;2;2;
60245;PMS5003;46107;53.356;-1.524;2024-02-21T06:39:42;2;2;
60245;PMS5003;46107;53.356;-1.524;2024-02-21T06:42:09;2;2;
60245;PMS5003;46107;53.356;-1.524;2024-02-21T06:44:36;2;2;
60245;PMS5003;46107;53.356;-1.524;2024-02-21T06:47:04;2;2;
60245;PMS5003;46107;53.356;-1.524;2024-02-21T06:49:31;2;2;
60245;PMS5003;46107;53.356;-1.524;2024-02-21T06:52:00;2;1;
60245;PMS5003;46107;53.356;-1.524;2024-02-21T06:54:26;2;1;
60245;PMS5003;46107;53.356;-1.524;2024-02-21T06:56:57;1;1;
60245;PMS5003;46107;53.356;-1.524;2024-02-21T06:59:27;2;2;
60245;PMS5003;46107;53.356;-1.524;2024-02-21T07:01:54;3;3;
60245;PMS5003;46107;53.356;-1.524;2024-02-21T07:04:22;3;2;
60245;PMS5003;46107;53.356;-1.524;2024-02-21T07:06:51;2;2;
60245;PMS5003;46107;53.356;-1.524;2024-02-21T07:09:19;6;5;
60245;PMS5003;46107;53.356;-1.524;2024-02-21T07:11:46;2;2;
60245;PMS5003;46107;53.356;-1.524;2024-02-21T07:14:15;3;3;
60245;PMS5003;46107;53.356;-1.524;2024-02-21T07:16:42;2;2;
60245;PMS5003;46107;53.356;-1.524;2024-02-21T07:19:11;4;3;
60245;PMS5003;46107;53.356;-1.524;2024-02-21T07:21:38;4;4;
60245;PMS5003;46107;53.356;-1.524;2024-02-21T07:24:07;2;2;
60245;PMS5003;46107;53.356;-1.524;2024-02-21T07:26:36;3;3;
60245;PMS5003;46107;53.356;-1.524;2024-02-21T07:29:08;6;3;
60245;PMS5003;46107;53.356;-1.524;2024-02-21T07:31:40;4;2;
60245;PMS5003;46107;53.356;-1.524;2024-02-21T07:34:09;4;4;
60245;PMS5003;46107;53.356;-1.524;2024-02-21T07:36:36;2;2;
60245;PMS5003;46107;53.356;-1.524;2024-02-21T07:39:04;3;3;
60245;PMS5003;46107;53.356;-1.524;2024-02-21T07:41:31;4;3;
60245;PMS5003;46107;53.356;-1.524;2024-02-21T07:43:59;4;4;
60245;PMS5003;46107;53.356;-1.524;2024-02-21T07:46:26;5;3;
60245;PMS5003;46107;53.356;-1.524;2024-02-21T07:48:57;3;3;
60245;PMS5003;46107;53.356;-1.524;2024-02-21T07:51:27;3;3;
60245;PMS5003;46107;53.356;-1.524;2024-02-21T07:53:55;2;2;
60245;PMS5003;46107;53.356;-1.524;2024-02-21T07:56:28;2;2;
60245;PMS5003;46107;53.356;-1.524;2024-02-21T07:58:55;2;2;
60245;PMS5003;46107;53.356;-1.524;2024-02-21T08:01:22;3;2;
60245;PMS5003;46107;53.356;-1.524;2024-02-21T08:03:52;2;2;
60245;PMS5003;46107;53.356;-1.524;2024-02-21T08:06:19;4;4;
60245;PMS5003;46107;53.356;-1.524;2024-02-21T08:08:46;3;2;
60245;PMS5003;46107;53.356;-1.524;2024-02-21T08:11:15;3;3;
60245;PMS5003;46107;53.356;-1.524;2024-02-21T08:13:43;2;2;
60245;PMS5003;46107;53.356;-1.524;2024-02-21T08:16:11;2;2;
60245;PMS5003;46107;53.356;-1.524;2024-02-21T08:18:38;1;1;
60245;PMS5003;46107;53.356;-1.524;2024-02-21T08:21:05;2;2;
60245;PMS5003;46107;53.356;-1.524;2024-02-21T08:23:33;2;2;
60245;PMS5003;46107;53.356;-1.524;2024-02-21T08:26:10;3;3;
60245;PMS5003;46107;53.356;-1.524;2024-02-21T08:28:38;2;2;
60245;PMS5003;46107;53.356;-1.524;2024-02-21T08:31:09;6;2;
60245;PMS5003;46107;53.356;-1.524;2024-02-21T08:33:37;2;2;
60245;PMS5003;46107;53.356;-1.524;2024-02-21T08:36:06;5;2;
60245;PMS5003;46107;53.356;-1.524;2024-02-21T08:38:34;2;2;
60245;PMS5003;46107;53.356;-1.524;2024-02-21T08:41:01;1;1;
60245;PMS5003;46107;53.356;-1.524;2024-02-21T08:43:29;2;2;
60245;PMS5003;46107;53.356;-1.524;2024-02-21T08:45:57;1;1;
60245;PMS5003;46107;53.356;-1.524;2024-02-21T08:48:26;1;1;
60245;PMS5003;46107;53.356;-1.524;2024-02-21T08:50:55;1;1;
60245;PMS5003;46107;53.356;-1.524;2024-02-21T08:53:22;2;2;
60245;PMS5003;46107;53.356;-1.524;2024-02-21T08:55:51;1;1;
60245;PMS5003;46107;53.356;-1.524;2024-02-21T08:58:20;1;1;
60245;PMS5003;46107;53.356;-1.524;2024-02-21T09:00:47;1;1;
60245;PMS5003;46107;53.356;-1.524;2024-02-21T09:03:17;1;1;
60245;PMS5003;46107;53.356;-1.524;2024-02-21T09:05:46;0;0;
60245;PMS5003;46107;53.356;-1.524;2024-02-21T09:08:13;2;2;
60245;PMS5003;46107;53.356;-1.524;2024-02-21T09:10:46;0;0;
60245;PMS5003;46107;53.356;-1.524;2024-02-21T09:13:14;4;4;
60245;PMS5003;46107;53.356;-1.524;2024-02-21T09:15:43;1;1;
60245;PMS5003;46107;53.356;-1.524;2024-02-21T09:18:11;2;1;
60245;PMS5003;46107;53.356;-1.524;2024-02-21T09:20:41;1;1;
60245;PMS5003;46107;53.356;-1.524;2024-02-21T09:23:13;0;0;
60245;PMS5003;46107;53.356;-1.524;2024-02-21T09:25:43;3;1;
60245;PMS5003;46107;53.356;-1.524;2024-02-21T09:28:12;1;1;
60245;PMS5003;46107;53.356;-1.524;2024-02-21T09:30:40;0;0;
60245;PMS5003;46107;53.356;-1.524;2024-02-21T09:33:08;1;1;
60245;PMS5003;46107;53.356;-1.524;2024-02-21T09:35:36;1;1;
60245;PMS5003;46107;53.356;-1.524;2024-02-21T09:38:08;1;1;
60245;PMS5003;46107;53.356;-1.524;2024-02-21T09:40:37;0;0;
60245;PMS5003;46107;53.356;-1.524;2024-02-21T09:43:06;0;0;
60245;PMS5003;46107;53.356;-1.524;2024-02-21T09:45:37;0;0;
60245;PMS5003;46107;53.356;-1.524;2024-02-21T09:48:13;0;0;
60245;PMS5003;46107;53.356;-1.524;2024-02-21T09:50:51;0;0;
60245;PMS5003;46107;53.356;-1.524;2024-02-21T09:53:20;2;0;
60245;PMS5003;46107;53.356;-1.524;2024-02-21T09:55:50;1;1;
60245;PMS5003;46107;53.356;-1.524;2024-02-21T09:58:19;0;0;
60245;PMS5003;46107;53.356;-1.524;2024-02-21T10:00:49;1;0;
60245;PMS5003;46107;53.356;-1.524;2024-02-21T10:03:18;1;1;
60245;PMS5003;46107;53.356;-1.524;2024-02-21T10:05:47;1;0;
60245;PMS5003;46107;53.356;-1.524;2024-02-21T10:08:16;0;0;
60245;PMS5003;46107;53.356;-1.524;2024-02-21T10:10:45;1;0;
60245;PMS5003;46107;53.356;-1.524;2024-02-21T10:13:23;1;0;
60245;PMS5003;46107;53.356;-1.524;2024-02-21T10:16:02;0;0;
60245;PMS5003;46107;53.356;-1.524;2024-02-21T10:18:30;2;1;
60245;PMS5003;46107;53.356;-1.524;2024-02-21T10:21:01;0;0;
60245;PMS5003;46107;53.356;-1.524;2024-02-21T10:23:29;0;0;
60245;PMS5003;46107;53.356;-1.524;2024-02-21T10:26:08;1;1;
60245;PMS5003;46107;53.356;-1.524;2024-02-21T10:28:37;0;0;
60245;PMS5003;46107;53.356;-1.524;2024-02-21T10:31:05;0;0;
60245;PMS5003;46107;53.356;-1.524;2024-02-21T10:33:33;0;0;
60245;PMS5003;46107;53.356;-1.524;2024-02-21T10:36:08;1;1;
60245;PMS5003;46107;53.356;-1.524;2024-02-21T10:38:36;1;1;
60245;PMS5003;46107;53.356;-1.524;2024-02-21T10:41:04;0;0;
60245;PMS5003;46107;53.356;-1.524;2024-02-21T10:43:33;0;0;
60245;PMS5003;46107;53.356;-1.524;2024-02-21T10:46:06;0;0;
60245;PMS5003;46107;53.356;-1.524;2024-02-21T10:48:36;0;0;
60245;PMS5003;46107;53.356;-1.524;2024-02-21T10:51:14;0;0;
60245;PMS5003;46107;53.356;-1.524;2024-02-21T10:53:44;0;0;
60245;PMS5003;46107;53.356;-1.524;2024-02-21T10:56:21;1;1;
60245;PMS5003;46107;53.356;-1.524;2024-02-21T10:58:55;0;0;
60245;PMS5003;46107;53.356;-1.524;2024-02-21T11:01:24;1;1;
60245;PMS5003;46107;53.356;-1.524;2024-02-21T11:03:58;0;0;
60245;PMS5003;46107;53.356;-1.524;2024-02-21T11:06:31;1;1;
60245;PMS5003;46107;53.356;-1.524;2024-02-21T11:09:01;1;1;
60245;PMS5003;46107;53.356;-1.524;2024-02-21T11:11:33;2;2;
60245;PMS5003;46107;53.356;-1.524;2024-02-21T11:14:05;2;2;
60245;PMS5003;46107;53.356;-1.524;2024-02-21T11:16:36;2;2;
60245;PMS5003;46107;53.356;-1.524;2024-02-21T11:19:06;2;2;
60245;PMS5003;46107;53.356;-1.524;2024-02-21T11:21:35;2;2;
60245;PMS5003;46107;53.356;-1.524;2024-02-21T11:24:04;2;0;
60245;PMS5003;46107;53.356;-1.524;2024-02-21T11:26:32;1;1;
60245;PMS5003;46107;53.356;-1.524;2024-02-21T11:29:02;3;3;
60245;PMS5003;46107;53.356;-1.524;2024-02-21T11:31:38;1;1;
60245;PMS5003;46107;53.356;-1.524;2024-02-21T11:34:08;1;1;
60245;PMS5003;46107;53.356;-1.524;2024-02-21T11:36:36;2;2;
60245;PMS5003;46107;53.356;-1.524;2024-02-21T11:39:13;1;1;
60245;PMS5003;46107;53.356;-1.524;2024-02-21T11:41:47;2;2;
60245;PMS5003;46107;53.356;-1.524;2024-02-21T11:44:26;3;3;
60245;PMS5003;46107;53.356;-1.524;2024-02-21T11:46:53;1;1;
60245;PMS5003;46107;53.356;-1.524;2024-02-21T11:49:21;0;0;
60245;PMS5003;46107;53.356;-1.524;2024-02-21T11:52:01;0;0;
60245;PMS5003;46107;53.356;-1.524;2024-02-21T11:54:29;1;1;
60245;PMS5003;46107;53.356;-1.524;2024-02-21T11:56:58;1;1;
60245;PMS5003;46107;53.356;-1.524;2024-02-21T11:59:30;1;1;
60245;PMS5003;46107;53.356;-1.524;2024-02-21T12:01:58;1;1;
60245;PMS5003;46107;53.356;-1.524;2024-02-21T12:04:27;0;0;
60245;PMS5003;46107;53.356;-1.524;2024-02-21T12:07:04;1;1;
60245;PMS5003;46107;53.356;-1.524;2024-02-21T12:09:33;0;0;
60245;PMS5003;46107;53.356;-1.524;2024-02-21T12:12:02;1;1;
60245;PMS5003;46107;53.356;-1.524;2024-02-21T12:14:32;1;1;
60245;PMS5003;46107;53.356;-1.524;2024-02-21T12:17:02;0;0;
60245;PMS5003;46107;53.356;-1.524;2024-02-21T12:19:30;0;0;
60245;PMS5003;46107;53.356;-1.524;2024-02-21T12:21:59;1;1;
60245;PMS5003;46107;53.356;-1.524;2024-02-21T12:24:28;0;0;
60245;PMS5003;46107;53.356;-1.524;2024-02-21T12:26:58;0;0;
60245;PMS5003;46107;53.356;-1.524;2024-02-21T12:29:26;0;0;
60245;PMS5003;46107;53.356;-1.524;2024-02-21T12:31:54;0;0;
60245;PMS5003;46107;53.356;-1.524;2024-02-21T12:34:23;1;1;
60245;PMS5003;46107;53.356;-1.524;2024-02-21T12:36:50;1;1;
60245;PMS5003;46107;53.356;-1.524;2024-02-21T12:39:20;1;1;
60245;PMS5003;46107;53.356;-1.524;2024-02-21T12:41:49;0;0;
60245;PMS5003;46107;53.356;-1.524;2024-02-21T12:44:17;0;0;
60245;PMS5003;46107;53.356;-1.524;2024-02-21T12:46:44;0;0;
60245;PMS5003;46107;53.356;-1.524;2024-02-21T12:49:13;1;1;
60245;PMS5003;46107;53.356;-1.524;2024-02-21T12:51:42;1;0;
60245;PMS5003;46107;53.356;-1.524;2024-02-21T12:54:09;1;1;
60245;PMS5003;46107;53.356;-1.524;2024-02-21T12:56:38;0;0;
60245;PMS5003;46107;53.356;-1.524;2024-02-21T12:59:05;0;0;
60245;PMS5003;46107;53.356;-1.524;2024-02-21T13:01:34;2;0;
60245;PMS5003;46107;53.356;-1.524;2024-02-21T13:04:03;1;1;
60245;PMS5003;46107;53.356;-1.524;2024-02-21T13:06:30;1;1;
60245;PMS5003;46107;53.356;-1.524;2024-02-21T13:08:57;1;1;
60245;PMS5003;46107;53.356;-1.524;2024-02-21T13:11:26;1;0;
60245;PMS5003;46107;53.356;-1.524;2024-02-21T13:13:56;0;0;
60245;PMS5003;46107;53.356;-1.524;2024-02-21T13:16:27;0;0;
60245;PMS5003;46107;53.356;-1.524;2024-02-21T13:18:55;0;0;
60245;PMS5003;46107;53.356;-1.524;2024-02-21T13:21:22;0;0;
60245;PMS5003;46107;53.356;-1.524;2024-02-21T13:23:54;0;0;
60245;PMS5003;46107;53.356;-1.524;2024-02-21T13:26:24;0;0;
60245;PMS5003;46107;53.356;-1.524;2024-02-21T13:28:52;0;0;
60245;PMS5003;46107;53.356;-1.524;2024-02-21T13:31:20;0;0;
60245;PMS5003;46107;53.356;-1.524;2024-02-21T13:33:48;1;0;
60245;PMS5003;46107;53.356;-1.524;2024-02-21T13:36:16;0;0;
60245;PMS5003;46107;53.356;-1.524;2024-02-21T13:38:44;0;0;
60245;PMS5003;46107;53.356;-1.524;2024-02-21T13:41:11;0;0;
60245;PMS5003;46107;53.356;-1.524;2024-02-21T13:43:39;0;0;
60245;PMS5003;46107;53.356;-1.524;2024-02-21T13:46:06;0;0;
60245;PMS5003;46107;53.356;-1.524;2024-02-21T13:48:34;0;0;
60245;PMS5003;46107;53.356;-1.524;2024-02-21T13:51:05;0;0;
60245;PMS5003;46107;53.356;-1.524;2024-02-21T13:53:33;0;0;
60245;PMS5003;46107;53.356;-1.524;2024-02-21T13:56:00;0;0;
60245;PMS5003;46107;53.356;-1.524;2024-02-21T13:58:29;0;0;
60245;PMS5003;46107;53.356;-1.524;2024-02-21T14:00:58;0;0;
60245;PMS5003;46107;53.356;-1.524;2024-02-21T14:03:26;0;0;
60245;PMS5003;46107;53.356;-1.524;2024-02-21T14:05:56;0;0;
60245;PMS5003;46107;53.356;-1.524;2024-02-21T14:08:24;0;0;
60245;PMS5003;46107;53.356;-1.524;2024-02-21T14:10:52;0;0;
60245;PMS5003;46107;53.356;-1.524;2024-02-21T14:13:22;0;0;
60245;PMS5003;46107;53.356;-1.524;2024-02-21T14:15:53;0;0;
60245;PMS5003;46107;53.356;-1.524;2024-02-21T14:18:20;0;0;
60245;PMS5003;46107;53.356;-1.524;2024-02-21T14:20:47;0;0;
60245;PMS5003;46107;53.356;-1.524;2024-02-21T14:23:18;0;0;
60245;PMS5003;46107;53.356;-1.524;2024-02-21T14:25:45;0;0;
60245;PMS5003;46107;53.356;-1.524;2024-02-21T14:28:12;0;0;
60245;PMS5003;46107;53.356;-1.524;2024-02-21T14:30:40;0;0;
60245;PMS5003;46107;53.356;-1.524;2024-02-21T14:33:08;0;0;
60245;PMS5003;46107;53.356;-1.524;2024-02-21T14:35:36;0;0;
60245;PMS5003;46107;53.356;-1.524;2024-02-21T14:38:06;0;0;
60245;PMS5003;46107;53.356;-1.524;2024-02-21T14:40:34;0;0;
60245;PMS5003;46107;53.356;-1.524;2024-02-21T14:43:02;0;0;
60245;PMS5003;46107;53.356;-1.524;2024-02-21T14:45:29;0;0;
60245;PMS5003;46107;53.356;-1.524;2024-02-21T14:47:57;0;0;
60245;PMS5003;46107;53.356;-1.524;2024-02-21T14:50:24;1;1;
60245;PMS5003;46107;53.356;-1.524;2024-02-21T14:52:52;1;1;
60245;PMS5003;46107;53.356;-1.524;2024-02-21T14:55:20;0;0;
60245;PMS5003;46107;53.356;-1.524;2024-02-21T14:57:48;1;1;
60245;PMS5003;46107;53.356;-1.524;2024-02-21T15:00:17;1;1;
60245;PMS5003;46107;53.356;-1.524;2024-02-21T15:02:45;1;1;
60245;PMS5003;46107;53.356;-1.524;2024-02-21T15:05:13;1;0;
60245;PMS5003;46107;53.356;-1.524;2024-02-21T15:07:40;1;1;
60245;PMS5003;46107;53.356;-1.524;2024-02-21T15:10:08;2;2;
60245;PMS5003;46107;53.356;-1.524;2024-02-21T15:12:37;1;1;
60245;PMS5003;46107;53.356;-1.524;2024-02-21T15:15:05;2;2;
60245;PMS5003;46107;53.356;-1.524;2024-02-21T15:17:33;0;0;
60245;PMS5003;46107;53.356;-1.524;2024-02-21T15:20:00;1;1;
60245;PMS5003;46107;53.356;-1.524;2024-02-21T15:22:28;1;1;
60245;PMS5003;46107;53.356;-1.524;2024-02-21T15:24:57;1;1;
60245;PMS5003;46107;53.356;-1.524;2024-02-21T15:27:24;4;2;
60245;PMS5003;46107;53.356;-1.524;2024-02-21T15:29:53;3;3;
60245;PMS5003;46107;53.356;-1.524;2024-02-21T15:32:20;1;1;
60245;PMS5003;46107;53.356;-1.524;2024-02-21T15:34:47;4;3;
60245;PMS5003;46107;53.356;-1.524;2024-02-21T15:37:15;3;3;
60245;PMS5003;46107;53.356;-1.524;2024-02-21T15:39:43;2;2;
60245;PMS5003;46107;53.356;-1.524;2024-02-21T15:42:11;2;2;
60245;PMS5003;46107;53.356;-1.524;2024-02-21T15:44:39;2;2;
60245;PMS5003;46107;53.356;-1.524;2024-02-21T15:47:08;2;2;
60245;PMS5003;46107;53.356;-1.524;2024-02-21T15:49:35;3;3;
60245;PMS5003;46107;53.356;-1.524;2024-02-21T15:52:03;3;3;
60245;PMS5003;46107;53.356;-1.524;2024-02-21T15:54:36;5;5;
60245;PMS5003;46107;53.356;-1.524;2024-02-21T15:57:04;7;7;
60245;PMS5003;46107;53.356;-1.524;2024-02-21T15:59:31;8;5;
60245;PMS5003;46107;53.356;-1.524;2024-02-21T16:01:59;8;7;
60245;PMS5003;46107;53.356;-1.524;2024-02-21T16:04:27;9;9;
60245;PMS5003;46107;53.356;-1.524;2024-02-21T16:06:59;10;10;
60245;PMS5003;46107;53.356;-1.524;2024-02-21T16:09:27;7;7;
60245;PMS5003;46107;53.356;-1.524;2024-02-21T16:11:55;7;7;
60245;PMS5003;46107;53.356;-1.524;2024-02-21T16:14:22;6;6;
60245;PMS5003;46107;53.356;-1.524;2024-02-21T16:16:49;9;8;
60245;PMS5003;46107;53.356;-1.524;2024-02-21T16:19:17;6;6;
60245;PMS5003;46107;53.356;-1.524;2024-02-21T16:21:44;5;5;
60245;PMS5003;46107;53.356;-1.524;2024-02-21T16:24:12;6;6;
60245;PMS5003;46107;53.356;-1.524;2024-02-21T16:26:38;9;5;
60245;PMS5003;46107;53.356;-1.524;2024-02-21T16:29:06;3;3;
60245;PMS5003;46107;53.356;-1.524;2024-02-21T16:31:35;8;6;
60245;PMS5003;46107;53.356;-1.524;2024-02-21T16:34:03;6;6;
60245;PMS5003;46107;53.356;-1.524;2024-02-21T16:36:30;4;4;